Darstellungsparameter: Aktuell verwendete Einstellungen:
Skalierung der Graphiken ... ?
xyx+y,   Skalierungsfaktor:      Skalierung: Modus: x, Faktor: 1
Darstellungszeitraum ... ?
Vom - - bis: - -   Zeitraum: 04.12.2008 - 04.12.2008
Min/Max/Avg-Anzeige ... ?
Zeige MMA aktuell
Zeige MMA Monat
Zeige MMA alles
Zeige --A aktuell
Zeige --A Monat
Zeige --A alles
Keine MMA-Anzeige
MMA:
Keine MMA-Graphiken
MMA-Basis: 04.12.2008 - 04.12.2008
Quicknavigation für Darstellung... ?
Tage:      1T, 2T, 3T, 5T -1T -2T -3T -5T +1T +2T +3T +5T
Wochen: 1W, 2W, 3W -1W -2W -3W +1W +2W +3W
Monate: 1M, 3M, 6M -1M -3M -6M +1M +3M +6M
Jahre:    1J, 3J, 5J, 10J -1J -3J -5J -10J +1J +3J +5J +10J
Nutze für die Darstellung ... ?
Originaldaten oder Mittelwerte auf ...
Stundenbasis Tagesbasis Wochenbasis
Monatsbasis Jahresbasis      Datenbasis: Original-Daten
Darstellen als:
Statistik (Auto) Statistik J:M      Darstellung:
Zur Graphik,    zurück zur Übersicht aller Sensoren.
 
Tabellarische Datenbersicht: ?
 
Sensor: Nr:Datum:Temp:Feuchte:Taupunkt:
Aussen-T/F 1 04-12-2008 00:11:02 0.2 C 94 % -0.65 C
2 04-12-2008 00:23:02 0.1 C 94 % -0.75 C
3 04-12-2008 00:35:02 -0.2 C 93 % -1.19 C
4 04-12-2008 00:47:02 -0.1 C 93 % -1.09 C
5 04-12-2008 00:59:02 -0.2 C 93 % -1.19 C
6 04-12-2008 01:11:02 -0.3 C 93 % -1.29 C
7 04-12-2008 01:23:02 -0.2 C 93 % -1.19 C
8 04-12-2008 01:35:02 -0.4 C 92 % -1.54 C
9 04-12-2008 01:47:02 -0.4 C 92 % -1.54 C
10 04-12-2008 01:59:02 -0.3 C 92 % -1.44 C
11 04-12-2008 02:11:02 -0.4 C 91 % -1.69 C
12 04-12-2008 02:23:02 -0.5 C 91 % -1.78 C
13 04-12-2008 02:35:02 -0.5 C 91 % -1.78 C
14 04-12-2008 02:47:02 -0.5 C 90 % -1.93 C
15 04-12-2008 02:59:02 -0.5 C 90 % -1.93 C
16 04-12-2008 03:11:03 -0.3 C 90 % -1.74 C
17 04-12-2008 03:23:03 -0.3 C 89 % -1.89 C
18 04-12-2008 03:35:03 -0.3 C 89 % -1.89 C
19 04-12-2008 03:47:03 -0.3 C 89 % -1.89 C
20 04-12-2008 03:59:03 -0.4 C 88 % -2.14 C
21 04-12-2008 04:11:03 -0.6 C 88 % -2.34 C
22 04-12-2008 04:23:03 -0.7 C 87 % -2.59 C
23 04-12-2008 04:35:03 -0.9 C 87 % -2.79 C
24 04-12-2008 04:47:03 -1 C 87 % -2.88 C
25 04-12-2008 04:59:03 -1.1 C 87 % -2.98 C
Sensor: Nr:Datum:Temp:Feuchte:Taupunkt:
Aussen-T/F 26 04-12-2008 05:11:03 -0.9 C 87 % -2.79 C
27 04-12-2008 05:23:03 -0.9 C 87 % -2.79 C
28 04-12-2008 05:35:03 -0.8 C 87 % -2.69 C
29 04-12-2008 05:47:03 -0.8 C 87 % -2.69 C
30 04-12-2008 05:59:03 -0.8 C 88 % -2.53 C
31 04-12-2008 06:11:03 -0.6 C 88 % -2.34 C
32 04-12-2008 06:23:03 -0.6 C 88 % -2.34 C
33 04-12-2008 06:35:03 -0.5 C 88 % -2.24 C
34 04-12-2008 06:47:03 -0.4 C 88 % -2.14 C
35 04-12-2008 06:59:03 -0.4 C 88 % -2.14 C
36 04-12-2008 07:11:01 -0.4 C 88 % -2.14 C
37 04-12-2008 07:23:02 -0.3 C 88 % -2.04 C
38 04-12-2008 07:35:01 -0.3 C 87 % -2.2 C
39 04-12-2008 07:47:01 -0.3 C 87 % -2.2 C
40 04-12-2008 07:59:01 -0.3 C 87 % -2.2 C
41 04-12-2008 08:11:02 -0.3 C 87 % -2.2 C
42 04-12-2008 08:23:01 -0.3 C 87 % -2.2 C
43 04-12-2008 08:35:02 -0.3 C 87 % -2.2 C
44 04-12-2008 08:47:02 -0.4 C 87 % -2.29 C
45 04-12-2008 08:59:03 -0.3 C 88 % -2.04 C
46 04-12-2008 09:11:02 -0.1 C 88 % -1.84 C
47 04-12-2008 09:23:02 0.1 C 88 % -1.65 C
48 04-12-2008 09:35:02 0.3 C 88 % -1.45 C
49 04-12-2008 09:47:02 0.6 C 89 % -1 C
50 04-12-2008 09:59:02 0.8 C 89 % -0.8 C
Sensor: Nr:Datum:Temp:Feuchte:Taupunkt:
Aussen-T/F 51 04-12-2008 10:11:02 1 C 88 % -0.76 C
52 04-12-2008 10:23:02 1.2 C 88 % -0.56 C
53 04-12-2008 10:35:02 1.2 C 89 % -0.41 C
54 04-12-2008 10:47:02 1.5 C 89 % -0.11 C
55 04-12-2008 10:59:02 1.9 C 89 % 0.28 C
56 04-12-2008 11:11:02 2.3 C 89 % 0.68 C
57 04-12-2008 11:23:02 2.8 C 89 % 1.17 C
58 04-12-2008 11:35:02 2.8 C 88 % 1.02 C
59 04-12-2008 11:47:02 2.9 C 89 % 1.27 C
60 04-12-2008 11:59:02 3.1 C 89 % 1.47 C
61 04-12-2008 12:11:02 3.4 C 90 % 1.92 C
62 04-12-2008 12:23:02 3.6 C 91 % 2.27 C
63 04-12-2008 12:35:02 3.7 C 91 % 2.37 C
64 04-12-2008 12:47:02 3.7 C 91 % 2.37 C
65 04-12-2008 12:59:02 3.5 C 91 % 2.17 C
66 04-12-2008 13:11:03 3.1 C 91 % 1.78 C
67 04-12-2008 13:23:02 3.1 C 92 % 1.93 C
68 04-12-2008 13:35:03 3.1 C 93 % 2.08 C
69 04-12-2008 13:47:02 3.1 C 93 % 2.08 C
70 04-12-2008 13:59:02 3.1 C 93 % 2.08 C
71 04-12-2008 14:11:02 3.2 C 94 % 2.33 C
72 04-12-2008 14:23:02 3.2 C 94 % 2.33 C
73 04-12-2008 14:35:02 3.5 C 94 % 2.63 C
74 04-12-2008 14:47:02 3.5 C 94 % 2.63 C
75 04-12-2008 14:59:03 3.5 C 93 % 2.48 C
Sensor: Nr:Datum:Temp:Feuchte:Taupunkt:
Aussen-T/F 76 04-12-2008 15:11:01 3.6 C 93 % 2.58 C
77 04-12-2008 15:23:02 3.5 C 92 % 2.33 C
78 04-12-2008 15:35:01 3.5 C 92 % 2.33 C
79 04-12-2008 15:47:03 3.5 C 92 % 2.33 C
80 04-12-2008 15:59:03 3.5 C 92 % 2.33 C
81 04-12-2008 16:11:02 3.6 C 92 % 2.42 C
82 04-12-2008 16:23:03 3.5 C 93 % 2.48 C
83 04-12-2008 16:35:02 3.6 C 93 % 2.58 C
84 04-12-2008 16:47:03 3.5 C 94 % 2.63 C
85 04-12-2008 16:59:03 3.6 C 94 % 2.73 C
86 04-12-2008 17:11:02 3.6 C 94 % 2.73 C
87 04-12-2008 17:23:03 3.6 C 94 % 2.73 C
88 04-12-2008 17:35:02 3.5 C 94 % 2.63 C
89 04-12-2008 17:47:01 3.6 C 94 % 2.73 C
90 04-12-2008 17:59:01 3.5 C 94 % 2.63 C
91 04-12-2008 18:11:01 3.5 C 94 % 2.63 C
92 04-12-2008 18:23:01 3.6 C 95 % 2.88 C
93 04-12-2008 18:35:01 3.6 C 95 % 2.88 C
94 04-12-2008 18:47:02 3.7 C 95 % 2.98 C
95 04-12-2008 18:59:02 3.7 C 95 % 2.98 C
96 04-12-2008 19:11:02 3.8 C 95 % 3.07 C
97 04-12-2008 19:23:02 3.8 C 95 % 3.07 C
98 04-12-2008 19:35:02 3.9 C 94 % 3.02 C
99 04-12-2008 19:47:02 4.1 C 94 % 3.22 C
100 04-12-2008 19:59:02 4.1 C 94 % 3.22 C
Sensor: Nr:Datum:Temp:Feuchte:Taupunkt:
Aussen-T/F 101 04-12-2008 20:11:02 4 C 94 % 3.12 C
102 04-12-2008 20:23:02 4 C 94 % 3.12 C
103 04-12-2008 20:35:02 4.1 C 94 % 3.22 C
104 04-12-2008 20:47:02 4.1 C 94 % 3.22 C
105 04-12-2008 20:59:02 4.2 C 94 % 3.32 C
106 04-12-2008 21:11:02 4.3 C 95 % 3.57 C
107 04-12-2008 21:23:02 4.2 C 95 % 3.47 C
108 04-12-2008 21:35:02 4.3 C 95 % 3.57 C
109 04-12-2008 21:47:02 4.4 C 95 % 3.67 C
110 04-12-2008 21:59:02 4.4 C 95 % 3.67 C
111 04-12-2008 22:12:03 4.6 C 95 % 3.87 C
112 04-12-2008 22:24:03 4.7 C 95 % 3.97 C
113 04-12-2008 22:36:03 4.8 C 95 % 4.07 C
114 04-12-2008 22:48:03 4.5 C 94 % 3.62 C
115 04-12-2008 23:00:03 4.6 C 94 % 3.72 C
116 04-12-2008 23:12:03 5 C 94 % 4.12 C
117 04-12-2008 23:24:03 5 C 94 % 4.12 C
118 04-12-2008 23:36:04 5 C 93 % 3.96 C
119 04-12-2008 23:48:04 5 C 93 % 3.96 C

Legende:
   Min
   Max


Maximal/Minimal-Werte vom 04.12.2008 - 04.12.2008

Sensor Min Max Avg
Temp
(Aussen-T/F)
-1.1 °C
04-12-2008  04:59:03
5 °C
04-12-2008  23:12:03
1.92 °C
Feuchte
(Aussen-T/F)
87 %
04-12-2008  04:23:03
95 %
04-12-2008  18:23:01
91.27 %
Taupunkt
(Aussen-T/F)
-2.98 C
04-12-2008  04:59:03
4.12 C
04-12-2008  23:12:03
0.65 C

Die Daten stammen von einer Davis Vantage Pro 2 Wetter-Station und werden unter Linux mit der Software wview2wettercgi und aufbereitet. Alle Angaben erfolgen ohne Gewähr für ihre Vollständigkeit oder Richtigkeit.
Kontakt: Rainer Krienke krienke@uni-koblenz.de . Meine Webseiten an der Uni Koblenz oder privat.
Version: $Revision: 0.78 $